createdAt,value
2023-06-10T00:02:28.693Z,8.88
2023-06-10T00:04:56.617Z,7.43
2023-06-10T00:07:25.111Z,9.38
2023-06-10T00:09:52.496Z,8.57
2023-06-10T00:12:21.314Z,7.22
2023-06-10T00:14:51.229Z,7.45
2023-06-10T00:17:18.948Z,10.05
2023-06-10T00:19:48.139Z,8.95
2023-06-10T00:22:15.686Z,7.93
2023-06-10T00:24:43.483Z,8.23
2023-06-10T00:27:11.060Z,7.57
2023-06-10T00:29:40.197Z,9.20
2023-06-10T00:32:08.595Z,6.70
2023-06-10T00:34:36.724Z,9.25
2023-06-10T00:37:04.902Z,10.00
2023-06-10T00:39:32.132Z,9.77
2023-06-10T00:41:59.491Z,8.52
2023-06-10T00:44:27.798Z,9.80
2023-06-10T00:46:56.960Z,8.98
2023-06-10T00:49:24.268Z,7.28
2023-06-10T00:51:54.321Z,9.02
2023-06-10T00:54:22.637Z,7.93
2023-06-10T00:56:51.107Z,10.35
2023-06-10T00:59:18.773Z,8.57
2023-06-10T01:01:51.029Z,9.13
2023-06-10T01:04:20.892Z,7.20
2023-06-10T01:07:21.030Z,8.98
2023-06-10T01:10:09.432Z,8.55
2023-06-10T01:13:12.974Z,9.55
2023-06-10T01:15:41.086Z,8.18
2023-06-10T01:18:11.161Z,7.95
2023-06-10T01:20:41.353Z,10.13
2023-06-10T01:23:10.611Z,7.35
2023-06-10T01:26:02.302Z,10.17
2023-06-10T01:28:55.111Z,7.78
2023-06-10T01:31:51.734Z,8.73
2023-06-10T01:34:24.531Z,8.77
2023-06-10T01:36:53.058Z,8.57
2023-06-10T01:39:26.491Z,8.10
2023-06-10T01:41:55.191Z,8.65
2023-06-10T01:44:25.591Z,8.30
2023-06-10T01:46:52.893Z,9.15
2023-06-10T01:49:20.237Z,8.65
2023-06-10T01:51:47.642Z,7.43
2023-06-10T01:54:14.989Z,9.30
2023-06-10T01:56:42.309Z,8.18
2023-06-10T01:59:09.593Z,8.90
2023-06-10T02:01:36.978Z,10.23
2023-06-10T02:04:04.693Z,9.02
2023-06-10T02:06:33.182Z,8.18
2023-06-10T02:09:00.548Z,7.70
2023-06-10T02:11:30.888Z,10.00
2023-06-10T02:13:59.029Z,8.75
2023-06-10T02:16:27.647Z,8.57
2023-06-10T02:18:56.849Z,6.93
2023-06-10T02:21:24.114Z,8.18
2023-06-10T02:23:51.652Z,8.95
2023-06-10T02:26:19.055Z,7.65
2023-06-10T02:28:46.481Z,8.80
2023-06-10T02:31:15.400Z,8.05
2023-06-10T02:33:43.015Z,8.30
2023-06-10T02:36:14.418Z,9.57
2023-06-10T02:38:43.117Z,8.23
2023-06-10T02:41:11.233Z,9.68
2023-06-10T02:43:38.710Z,9.40
2023-06-10T02:46:06.216Z,9.63
2023-06-10T02:48:47.323Z,9.90
2023-06-10T02:51:20.772Z,9.55
2023-06-10T02:53:50.948Z,8.77
2023-06-10T02:56:18.701Z,9.77
2023-06-10T02:58:46.931Z,9.77
2023-06-10T03:01:16.497Z,9.68
2023-06-10T03:03:53.738Z,10.40
2023-06-10T03:06:21.417Z,8.38
2023-06-10T03:08:48.963Z,9.95
2023-06-10T03:11:20.765Z,8.70
2023-06-10T03:13:49.460Z,8.85
2023-06-10T03:16:19.729Z,7.93
2023-06-10T03:18:54.981Z,9.43
2023-06-10T03:21:25.062Z,12.90
2023-06-10T03:23:52.934Z,9.57
2023-06-10T03:26:22.807Z,8.65
2023-06-10T03:28:51.021Z,9.15
2023-06-10T03:31:20.123Z,8.48
2023-06-10T03:33:48.173Z,8.07
2023-06-10T03:36:16.394Z,9.30
2023-06-10T03:38:43.830Z,11.05
2023-06-10T03:41:11.385Z,9.48
2023-06-10T03:43:42.065Z,9.38
2023-06-10T03:46:09.952Z,8.48
2023-06-10T03:48:39.784Z,8.55
2023-06-10T03:51:08.216Z,8.70
2023-06-10T03:53:35.420Z,8.93
2023-06-10T03:56:02.944Z,8.33
2023-06-10T03:58:31.330Z,7.63
2023-06-10T04:01:00.236Z,10.43
2023-06-10T04:03:34.358Z,9.50
2023-06-10T04:06:02.050Z,7.35
2023-06-10T04:08:29.490Z,9.90
2023-06-10T04:10:57.225Z,8.77
2023-06-10T04:13:25.425Z,7.63
2023-06-10T04:15:56.807Z,8.07
2023-06-10T04:18:24.309Z,9.82
2023-06-10T04:20:55.377Z,9.00
2023-06-10T04:23:22.748Z,10.65
2023-06-10T04:25:50.017Z,8.73
2023-06-10T04:28:17.309Z,11.27
2023-06-10T04:30:46.999Z,9.23
2023-06-10T04:33:15.118Z,8.90
2023-06-10T04:35:43.426Z,8.70
2023-06-10T04:38:15.269Z,8.27
2023-06-10T04:40:43.249Z,7.78
2023-06-10T04:43:12.232Z,8.82
2023-06-10T04:45:40.385Z,7.32
2023-06-10T04:48:08.813Z,6.60
2023-06-10T04:50:36.273Z,10.25
2023-06-10T04:53:03.815Z,7.00
2023-06-10T04:55:32.106Z,9.40
2023-06-10T04:57:59.334Z,8.32
2023-06-10T05:00:26.593Z,8.75
2023-06-10T05:02:54.196Z,8.15
2023-06-10T05:05:21.528Z,8.80
2023-06-10T05:07:48.767Z,6.30
2023-06-10T05:10:16.444Z,9.15
2023-06-10T05:12:43.765Z,6.97
2023-06-10T05:15:12.198Z,8.43
2023-06-10T05:17:39.725Z,7.95
2023-06-10T05:20:07.819Z,7.10
2023-06-10T05:22:35.718Z,6.00
2023-06-10T05:25:03.063Z,7.00
2023-06-10T05:27:30.379Z,7.78
2023-06-10T05:29:57.793Z,6.00
2023-06-10T05:32:25.162Z,7.63
2023-06-10T05:34:52.368Z,6.72
2023-06-10T05:37:19.729Z,5.85
2023-06-10T05:39:47.041Z,6.80
2023-06-10T05:42:14.452Z,7.85
2023-06-10T05:44:41.805Z,8.93
2023-06-10T05:47:09.164Z,7.68
2023-06-10T05:49:36.435Z,6.90
2023-06-10T05:52:04.208Z,8.52
2023-06-10T05:54:31.698Z,6.97
2023-06-10T05:56:59.278Z,7.13
2023-06-10T05:59:26.677Z,5.95
2023-06-10T06:01:53.920Z,5.82
2023-06-10T06:04:21.419Z,6.18
2023-06-10T06:06:48.784Z,8.38
2023-06-10T06:09:16.448Z,6.55
2023-06-10T06:11:43.820Z,5.70
2023-06-10T06:14:10.979Z,5.82
2023-06-10T06:16:38.270Z,5.25
2023-06-10T06:19:05.812Z,7.50
2023-06-10T06:21:33.134Z,5.32
2023-06-10T06:24:01.276Z,5.15
2023-06-10T06:26:28.997Z,6.07
2023-06-10T06:28:56.355Z,6.05
2023-06-10T06:31:23.778Z,5.25
2023-06-10T06:33:51.183Z,5.07
2023-06-10T06:36:18.424Z,5.30
2023-06-10T06:38:45.786Z,5.60
2023-06-10T06:41:13.150Z,4.93
2023-06-10T06:43:40.356Z,5.70
2023-06-10T06:46:18.125Z,5.40
2023-06-10T06:48:46.176Z,5.10
2023-06-10T06:51:13.602Z,8.38
2023-06-10T06:53:45.467Z,5.30
2023-06-10T06:56:13.755Z,6.50
2023-06-10T06:58:41.055Z,6.55
2023-06-10T07:01:08.577Z,4.55
2023-06-10T07:03:35.969Z,5.03
2023-06-10T07:06:03.387Z,7.32
2023-06-10T07:08:30.662Z,7.30
2023-06-10T07:10:58.044Z,5.15
2023-06-10T07:13:25.290Z,5.07
2023-06-10T07:15:52.636Z,4.15
2023-06-10T07:18:19.859Z,5.53
2023-06-10T07:20:47.069Z,4.45
2023-06-10T07:23:14.351Z,5.80
2023-06-10T07:25:43.203Z,5.68
2023-06-10T07:28:10.506Z,5.90
2023-06-10T07:30:37.834Z,6.68
2023-06-10T07:33:06.887Z,4.68
2023-06-10T07:35:34.670Z,5.55
2023-06-10T07:38:01.947Z,4.50
2023-06-10T07:40:29.242Z,4.47
2023-06-10T07:42:56.719Z,4.97
2023-06-10T07:45:24.128Z,6.50
2023-06-10T07:47:51.548Z,4.45
2023-06-10T07:50:19.126Z,6.97
2023-06-10T07:52:46.472Z,5.63
2023-06-10T07:55:13.865Z,4.97
2023-06-10T07:57:41.998Z,5.20
2023-06-10T08:00:10.728Z,4.65
2023-06-10T08:02:41.265Z,4.43
2023-06-10T08:05:09.456Z,5.03
2023-06-10T08:07:37.161Z,5.57
2023-06-10T08:10:07.594Z,4.43
2023-06-10T08:12:36.448Z,5.15
2023-06-10T08:15:05.708Z,3.80
2023-06-10T08:17:33.164Z,4.63
2023-06-10T08:20:01.908Z,5.78
2023-06-10T08:22:30.544Z,4.00
2023-06-10T08:24:57.894Z,4.95
2023-06-10T08:27:26.104Z,5.03
2023-06-10T08:29:53.424Z,5.05
2023-06-10T08:32:20.936Z,3.83
2023-06-10T08:34:48.736Z,5.18
2023-06-10T08:37:16.206Z,5.40
2023-06-10T08:39:43.918Z,5.28
2023-06-10T08:42:40.999Z,4.88
2023-06-10T08:45:18.674Z,5.20
2023-06-10T08:47:54.961Z,4.45
2023-06-10T08:50:24.099Z,4.78
2023-06-10T08:52:59.456Z,4.57
2023-06-10T08:55:43.574Z,5.18
2023-06-10T08:58:12.106Z,4.85
2023-06-10T09:00:40.045Z,4.88
2023-06-10T09:03:09.919Z,5.95
2023-06-10T09:05:38.460Z,5.40
2023-06-10T09:08:09.385Z,6.63
2023-06-10T09:10:36.814Z,6.32
2023-06-10T09:13:04.254Z,4.45
2023-06-10T09:15:31.697Z,4.20
2023-06-10T09:18:00.757Z,5.55
2023-06-10T09:20:28.160Z,4.10
2023-06-10T09:22:55.439Z,4.78
2023-06-10T09:25:39.137Z,16.10
2023-06-10T09:28:15.951Z,5.03
2023-06-10T09:30:43.328Z,5.60
2023-06-10T09:33:17.196Z,5.82
2023-06-10T09:35:51.467Z,4.50
2023-06-10T09:38:23.781Z,4.40
2023-06-10T09:40:54.980Z,5.65
2023-06-10T09:43:23.442Z,5.97
2023-06-10T09:45:58.505Z,4.50
2023-06-10T09:48:26.690Z,4.88
2023-06-10T09:50:54.056Z,5.60
2023-06-10T09:53:22.211Z,4.00
2023-06-10T09:55:49.623Z,4.60
2023-06-10T09:58:17.021Z,4.88
2023-06-10T10:00:44.260Z,4.07
2023-06-10T10:03:24.244Z,4.20
2023-06-10T10:06:01.640Z,5.95
2023-06-10T10:08:29.754Z,4.20
2023-06-10T10:10:59.696Z,6.13
2023-06-10T10:13:29.200Z,4.63
2023-06-10T10:16:16.645Z,4.00
2023-06-10T10:18:55.792Z,5.63
2023-06-10T10:21:33.237Z,6.18
2023-06-10T10:24:19.068Z,6.38
2023-06-10T10:26:51.722Z,4.68
2023-06-10T10:29:32.321Z,4.20
2023-06-10T10:32:02.032Z,4.78
2023-06-10T10:35:07.085Z,5.05
2023-06-10T10:37:36.501Z,4.32
2023-06-10T10:40:06.085Z,4.75
2023-06-10T10:42:34.871Z,4.25
2023-06-10T10:45:03.558Z,4.05
2023-06-10T10:47:34.602Z,5.85
2023-06-10T10:50:01.880Z,4.30
2023-06-10T10:53:01.208Z,4.03
2023-06-10T10:55:29.682Z,3.88
2023-06-10T10:58:03.825Z,5.43
2023-06-10T11:00:45.903Z,4.38
2023-06-10T11:03:19.055Z,4.63
2023-06-10T11:05:50.265Z,4.93
2023-06-10T11:08:30.187Z,4.82
2023-06-10T11:10:57.753Z,5.05
2023-06-10T11:13:28.236Z,4.20
2023-06-10T11:15:59.831Z,4.30
2023-06-10T11:18:32.321Z,4.30
2023-06-10T11:21:06.270Z,4.38
2023-06-10T11:23:34.331Z,5.15
2023-06-10T11:26:32.613Z,4.55
2023-06-10T11:28:59.912Z,4.00
2023-06-10T11:31:43.268Z,3.70
2023-06-10T11:34:11.573Z,4.25
2023-06-10T11:36:46.541Z,3.78
2023-06-10T11:39:14.839Z,6.90
2023-06-10T11:41:42.582Z,5.63
2023-06-10T11:44:17.269Z,3.85
2023-06-10T11:46:49.225Z,4.53
2023-06-10T11:49:16.843Z,5.13
2023-06-10T11:51:51.208Z,4.68
2023-06-10T11:54:19.508Z,4.80
2023-06-10T11:56:48.579Z,5.75
2023-06-10T11:59:16.166Z,4.43
2023-06-10T12:01:46.968Z,6.18
2023-06-10T12:04:17.331Z,6.22
2023-06-10T12:06:48.864Z,5.07
2023-06-10T12:09:26.061Z,5.22
2023-06-10T12:12:09.885Z,4.40
2023-06-10T12:15:00.911Z,5.18
2023-06-10T12:17:32.820Z,4.90
2023-06-10T12:20:04.901Z,7.30
2023-06-10T12:22:45.723Z,5.53
2023-06-10T12:25:13.950Z,6.30
2023-06-10T12:27:54.125Z,4.72
2023-06-10T12:30:25.183Z,4.88
2023-06-10T12:32:56.647Z,4.47
2023-06-10T12:35:27.780Z,5.15
2023-06-10T12:38:07.887Z,4.10
2023-06-10T12:40:44.541Z,4.93
2023-06-10T12:43:13.020Z,4.70
2023-06-10T12:45:44.326Z,4.60
2023-06-10T12:48:17.949Z,5.13
2023-06-10T12:50:47.954Z,4.75
2023-06-10T12:53:15.863Z,4.00
2023-06-10T12:55:43.226Z,4.10
2023-06-10T12:58:10.649Z,4.07
2023-06-10T13:00:38.576Z,4.38
2023-06-10T13:03:08.768Z,4.88
2023-06-10T13:05:40.238Z,5.22
2023-06-10T13:08:11.260Z,3.90
2023-06-10T13:10:39.782Z,4.28
2023-06-10T13:13:09.124Z,5.07
2023-06-10T13:15:40.291Z,4.10
2023-06-10T13:18:09.225Z,4.20
2023-06-10T13:20:37.225Z,4.63
2023-06-10T13:23:04.723Z,5.15
2023-06-10T13:25:32.240Z,4.43
2023-06-10T13:27:59.517Z,4.32
2023-06-10T13:30:27.779Z,5.28
2023-06-10T13:32:55.137Z,4.95
2023-06-10T13:35:22.590Z,5.25
2023-06-10T13:37:50.005Z,5.15
2023-06-10T13:40:17.278Z,6.00
2023-06-10T13:42:45.242Z,3.92
2023-06-10T13:45:13.115Z,4.20
2023-06-10T13:47:40.642Z,4.40
2023-06-10T13:50:09.276Z,4.88
2023-06-10T13:52:36.622Z,3.72
2023-06-10T13:55:04.892Z,4.35
2023-06-10T13:57:32.109Z,4.15
2023-06-10T13:59:59.375Z,4.45
2023-06-10T14:02:26.708Z,4.22
2023-06-10T14:04:54.288Z,6.28
2023-06-10T14:07:21.923Z,6.00
2023-06-10T14:09:49.385Z,6.80
2023-06-10T14:12:16.600Z,4.03
2023-06-10T14:14:43.983Z,4.93
2023-06-10T14:17:11.439Z,4.38
2023-06-10T14:19:38.813Z,5.82
2023-06-10T14:22:08.273Z,4.30
2023-06-10T14:24:37.509Z,4.35
2023-06-10T14:27:05.458Z,5.57
2023-06-10T14:29:34.597Z,4.75
2023-06-10T14:32:02.138Z,5.95
2023-06-10T14:34:30.875Z,4.68
2023-06-10T14:36:58.302Z,6.78
2023-06-10T14:39:25.812Z,4.70
2023-06-10T14:41:55.950Z,5.72
2023-06-10T14:44:23.270Z,4.40
2023-06-10T14:46:50.653Z,4.75
2023-06-10T14:49:18.000Z,4.15
2023-06-10T14:51:45.867Z,4.20
2023-06-10T14:54:13.153Z,6.15
2023-06-10T14:56:40.464Z,4.93
2023-06-10T14:59:07.712Z,4.78
2023-06-10T15:01:35.363Z,6.05
2023-06-10T15:04:02.807Z,5.43
2023-06-10T15:06:30.175Z,5.72
2023-06-10T15:08:57.417Z,5.03
2023-06-10T15:11:24.866Z,10.00
2023-06-10T15:13:55.388Z,5.93
2023-06-10T15:16:22.813Z,4.43
2023-06-10T15:18:50.789Z,5.93
2023-06-10T15:21:18.090Z,7.32
2023-06-10T15:23:45.664Z,4.70
2023-06-10T15:26:13.113Z,4.47
2023-06-10T15:28:40.424Z,4.70
2023-06-10T15:31:09.188Z,6.75
2023-06-10T15:33:37.126Z,6.30
2023-06-10T15:36:06.261Z,5.03
2023-06-10T15:38:33.595Z,4.43
2023-06-10T15:41:00.811Z,4.90
2023-06-10T15:43:28.095Z,5.25
2023-06-10T15:45:59.597Z,4.88
2023-06-10T15:48:27.313Z,3.85
2023-06-10T15:50:54.614Z,5.50
2023-06-10T15:53:21.839Z,4.63
2023-06-10T15:55:50.287Z,3.95
2023-06-10T15:58:17.971Z,3.97
2023-06-10T16:00:45.356Z,5.30
2023-06-10T16:03:12.815Z,4.78
2023-06-10T16:05:40.190Z,3.67
2023-06-10T16:08:07.398Z,4.05
2023-06-10T16:10:34.720Z,3.83
2023-06-10T16:13:03.554Z,4.40
2023-06-10T16:15:30.808Z,5.50
2023-06-10T16:17:59.302Z,4.03
2023-06-10T16:20:26.788Z,4.00
2023-06-10T16:22:54.126Z,4.50
2023-06-10T16:25:21.390Z,3.80
2023-06-10T16:27:51.969Z,4.07
2023-06-10T16:30:19.208Z,4.43
2023-06-10T16:32:46.546Z,4.55
2023-06-10T16:35:13.846Z,6.13
2023-06-10T16:37:44.951Z,4.85
2023-06-10T16:40:13.618Z,4.97
2023-06-10T16:42:45.338Z,4.10
2023-06-10T16:45:20.278Z,4.28
2023-06-10T16:47:47.784Z,4.22
2023-06-10T16:50:15.338Z,4.85
2023-06-10T16:52:43.140Z,4.93
2023-06-10T16:55:10.811Z,4.82
2023-06-10T16:57:38.271Z,4.15
2023-06-10T17:00:07.503Z,5.63
2023-06-10T17:02:34.959Z,5.47
2023-06-10T17:05:02.391Z,6.28
2023-06-10T17:07:31.589Z,6.18
2023-06-10T17:09:59.679Z,5.00
2023-06-10T17:12:26.969Z,5.47
2023-06-10T17:14:54.360Z,5.97
2023-06-10T17:17:21.770Z,4.93
2023-06-10T17:19:51.284Z,5.47
2023-06-10T17:22:19.819Z,4.45
2023-06-10T17:24:47.081Z,4.88
2023-06-10T17:27:14.397Z,4.35
2023-06-10T17:29:41.905Z,6.95
2023-06-10T17:32:09.927Z,4.60
2023-06-10T17:34:37.165Z,4.00
2023-06-10T17:37:04.831Z,4.53
2023-06-10T17:39:37.426Z,5.72
2023-06-10T17:42:07.114Z,6.97
2023-06-10T17:44:34.648Z,4.65
2023-06-10T17:47:01.884Z,5.38
2023-06-10T17:49:32.947Z,4.80
2023-06-10T17:52:00.606Z,4.93
2023-06-10T17:54:27.856Z,7.13
2023-06-10T17:56:56.494Z,4.90
2023-06-10T17:59:24.119Z,4.43
2023-06-10T18:01:51.537Z,5.63
2023-06-10T18:04:19.152Z,5.00
2023-06-10T18:06:46.594Z,5.45
2023-06-10T18:09:16.262Z,4.22
2023-06-10T18:11:43.980Z,4.57
2023-06-10T18:14:11.606Z,4.88
2023-06-10T18:16:38.995Z,4.28
2023-06-10T18:19:06.465Z,5.15
2023-06-10T18:21:33.737Z,4.75
2023-06-10T18:24:01.324Z,4.65
2023-06-10T18:26:28.851Z,4.45
2023-06-10T18:28:56.229Z,3.95
2023-06-10T18:31:23.706Z,6.78
2023-06-10T18:33:51.207Z,4.45
2023-06-10T18:36:18.420Z,4.47
2023-06-10T18:38:46.701Z,6.55
2023-06-10T18:41:14.094Z,4.60
2023-06-10T18:43:42.452Z,4.45
2023-06-10T18:46:10.259Z,5.60
2023-06-10T18:48:37.609Z,5.43
2023-06-10T18:51:04.969Z,5.25
2023-06-10T18:53:32.280Z,7.82
2023-06-10T18:56:02.627Z,4.97
2023-06-10T18:58:37.759Z,4.65
2023-06-10T19:01:08.423Z,4.90
2023-06-10T19:03:35.971Z,6.57
2023-06-10T19:06:03.428Z,5.10
2023-06-10T19:08:31.164Z,6.63
2023-06-10T19:10:58.536Z,4.60
2023-06-10T19:13:28.582Z,6.57
2023-06-10T19:15:56.054Z,6.07
2023-06-10T19:18:23.897Z,6.78
2023-06-10T19:20:52.289Z,5.72
2023-06-10T19:23:19.831Z,4.53
2023-06-10T19:25:47.221Z,6.63
2023-06-10T19:28:14.543Z,4.90
2023-06-10T19:31:09.596Z,5.80
2023-06-10T19:33:37.145Z,4.97
2023-06-10T19:36:04.812Z,5.68
2023-06-10T19:38:32.110Z,4.90
2023-06-10T19:40:59.349Z,8.18
2023-06-10T19:43:26.582Z,5.53
2023-06-10T19:45:53.882Z,5.78
2023-06-10T19:48:21.367Z,6.43
2023-06-10T19:50:49.607Z,6.20
2023-06-10T19:53:16.868Z,5.57
2023-06-10T19:55:44.241Z,5.78
2023-06-10T19:58:12.597Z,6.72
2023-06-10T20:00:39.815Z,5.15
2023-06-10T20:03:07.213Z,6.22
2023-06-10T20:05:34.782Z,6.32
2023-06-10T20:08:02.047Z,11.90
2023-06-10T20:10:29.297Z,5.88
2023-06-10T20:12:56.547Z,7.70
2023-06-10T20:15:24.030Z,6.97
2023-06-10T20:17:52.930Z,7.60
2023-06-10T20:20:20.357Z,6.50
2023-06-10T20:22:47.782Z,5.97
2023-06-10T20:25:15.552Z,6.97
2023-06-10T20:27:43.676Z,5.75
2023-06-10T20:30:11.792Z,5.80
2023-06-10T20:32:40.444Z,5.90
2023-06-10T20:35:09.421Z,6.53
2023-06-10T20:37:36.985Z,7.07
2023-06-10T20:40:06.460Z,5.88
2023-06-10T20:42:33.907Z,7.03
2023-06-10T20:45:01.506Z,8.63
2023-06-10T20:47:29.067Z,6.22
2023-06-10T20:49:56.456Z,6.00
2023-06-10T20:52:23.907Z,6.65
2023-06-10T20:54:51.282Z,5.43
2023-06-10T20:57:29.568Z,5.90
2023-06-10T21:00:20.903Z,6.10
2023-06-10T21:03:09.250Z,6.25
2023-06-10T21:05:48.769Z,8.35
2023-06-10T21:08:16.791Z,6.90
2023-06-10T21:10:44.279Z,6.13
2023-06-10T21:13:11.639Z,8.30
2023-06-10T21:15:39.009Z,6.63
2023-06-10T21:18:06.378Z,7.13
2023-06-10T21:20:33.693Z,6.65
2023-06-10T21:23:01.301Z,7.28
2023-06-10T21:25:28.645Z,6.45
2023-06-10T21:27:55.975Z,7.50
2023-06-10T21:30:23.747Z,6.05
2023-06-10T21:32:51.222Z,6.22
2023-06-10T21:35:18.627Z,6.72
2023-06-10T21:37:46.093Z,6.00
2023-06-10T21:40:14.653Z,6.68
2023-06-10T21:42:41.964Z,9.48
2023-06-10T21:45:10.484Z,7.10
2023-06-10T21:47:38.019Z,6.00
2023-06-10T21:50:06.512Z,5.40
2023-06-10T21:52:36.625Z,6.43
2023-06-10T21:55:04.374Z,6.55
2023-06-10T21:57:32.189Z,5.18
2023-06-10T21:59:59.555Z,5.60
2023-06-10T22:02:27.729Z,5.15
2023-06-10T22:04:55.393Z,6.13
2023-06-10T22:07:22.736Z,6.70
2023-06-10T22:09:50.710Z,5.68
2023-06-10T22:12:18.578Z,5.75
2023-06-10T22:14:46.264Z,6.10
2023-06-10T22:17:14.322Z,7.38
2023-06-10T22:19:42.655Z,5.13
2023-06-10T22:22:12.313Z,8.32
2023-06-10T22:24:39.592Z,6.30
2023-06-10T22:27:09.516Z,5.47
2023-06-10T22:29:38.215Z,6.72
2023-06-10T22:32:06.633Z,7.70
2023-06-10T22:34:34.002Z,6.22
2023-06-10T22:37:01.376Z,6.40
2023-06-10T22:39:28.705Z,5.97
2023-06-10T22:41:56.366Z,6.10
2023-06-10T22:44:23.613Z,6.03
2023-06-10T22:46:51.044Z,7.53
2023-06-10T22:49:18.624Z,7.38
2023-06-10T22:51:47.376Z,6.68
2023-06-10T22:54:15.270Z,6.97
2023-06-10T22:56:42.822Z,6.65
2023-06-10T22:59:11.638Z,7.35
2023-06-10T23:01:39.282Z,7.35
2023-06-10T23:04:06.524Z,6.78
2023-06-10T23:06:33.798Z,6.15
2023-06-10T23:09:01.023Z,6.57
2023-06-10T23:11:28.208Z,6.13
2023-06-10T23:13:55.537Z,6.47
2023-06-10T23:16:22.844Z,6.20
2023-06-10T23:18:51.080Z,5.50
2023-06-10T23:21:20.015Z,7.65
2023-06-10T23:23:53.025Z,7.82
2023-06-10T23:26:20.692Z,8.48
2023-06-10T23:28:48.048Z,6.68
2023-06-10T23:31:17.173Z,6.53
2023-06-10T23:33:45.318Z,6.68
2023-06-10T23:36:14.004Z,6.28
2023-06-10T23:38:41.727Z,7.43
2023-06-10T23:41:09.064Z,7.18
2023-06-10T23:43:36.493Z,5.53
2023-06-10T23:46:03.915Z,6.57
2023-06-10T23:48:31.176Z,7.13
2023-06-10T23:51:00.995Z,7.40
2023-06-10T23:53:28.400Z,8.02
2023-06-10T23:55:55.849Z,8.45
2023-06-10T23:58:23.191Z,6.55
